sensor_id;sensor_type;location;lat;lon;timestamp;pressure;altitude;pressure_sealevel;temperature;humidity
34081;BME280;20358;50.272;19.026;2023-12-14T00:00:59;96882.53;;;10.29;59.15
34081;BME280;20358;50.272;19.026;2023-12-14T00:04:08;96880.88;;;10.15;59.77
34081;BME280;20358;50.272;19.026;2023-12-14T00:07:14;96884.44;;;10.14;59.85
34081;BME280;20358;50.272;19.026;2023-12-14T00:10:20;96888.50;;;10.18;59.66
34081;BME280;20358;50.272;19.026;2023-12-14T00:13:27;96898.22;;;10.16;59.72
34081;BME280;20358;50.272;19.026;2023-12-14T00:16:33;96891.13;;;10.18;59.61
34081;BME280;20358;50.272;19.026;2023-12-14T00:19:42;96909.06;;;10.23;59.48
34081;BME280;20358;50.272;19.026;2023-12-14T00:22:49;96912.72;;;10.20;59.27
34081;BME280;20358;50.272;19.026;2023-12-14T00:25:55;96915.56;;;10.17;59.10
34081;BME280;20358;50.272;19.026;2023-12-14T00:29:03;96925.16;;;10.04;59.08
34081;BME280;20358;50.272;19.026;2023-12-14T00:32:09;96923.06;;;9.96;59.37
34081;BME280;20358;50.272;19.026;2023-12-14T00:35:18;96933.00;;;9.91;59.99
34081;BME280;20358;50.272;19.026;2023-12-14T00:38:24;96945.13;;;9.92;59.58
34081;BME280;20358;50.272;19.026;2023-12-14T00:41:31;96950.94;;;9.96;59.82
34081;BME280;20358;50.272;19.026;2023-12-14T00:44:37;96951.91;;;9.95;59.18
34081;BME280;20358;50.272;19.026;2023-12-14T00:47:44;96948.56;;;9.93;59.20
34081;BME280;20358;50.272;19.026;2023-12-14T00:50:52;96954.00;;;9.90;59.56
34081;BME280;20358;50.272;19.026;2023-12-14T00:53:59;96964.44;;;9.90;59.43
34081;BME280;20358;50.272;19.026;2023-12-14T00:57:05;96965.28;;;9.90;59.50
34081;BME280;20358;50.272;19.026;2023-12-14T01:00:12;96961.72;;;9.91;59.47
34081;BME280;20358;50.272;19.026;2023-12-14T01:03:19;96955.66;;;9.91;59.33
34081;BME280;20358;50.272;19.026;2023-12-14T01:06:28;96962.56;;;9.92;59.28
34081;BME280;20358;50.272;19.026;2023-12-14T01:09:34;96962.34;;;9.95;59.06
34081;BME280;20358;50.272;19.026;2023-12-14T01:12:41;96965.69;;;9.97;58.88
34081;BME280;20358;50.272;19.026;2023-12-14T01:15:47;96965.34;;;10.02;59.35
34081;BME280;20358;50.272;19.026;2023-12-14T01:18:54;96970.69;;;10.00;58.78
34081;BME280;20358;50.272;19.026;2023-12-14T01:22:03;96978.94;;;9.94;59.09
34081;BME280;20358;50.272;19.026;2023-12-14T01:25:10;96976.97;;;9.85;59.35
34081;BME280;20358;50.272;19.026;2023-12-14T01:28:16;96976.44;;;9.80;59.30
34081;BME280;20358;50.272;19.026;2023-12-14T01:31:22;96978.22;;;9.79;59.57
34081;BME280;20358;50.272;19.026;2023-12-14T01:34:28;96977.56;;;9.76;59.75
34081;BME280;20358;50.272;19.026;2023-12-14T01:37:38;96974.44;;;9.71;59.74
34081;BME280;20358;50.272;19.026;2023-12-14T01:40:43;96980.31;;;9.74;60.08
34081;BME280;20358;50.272;19.026;2023-12-14T01:43:50;96978.75;;;9.72;59.47
34081;BME280;20358;50.272;19.026;2023-12-14T01:46:56;96978.53;;;9.62;59.86
34081;BME280;20358;50.272;19.026;2023-12-14T01:50:05;96974.25;;;9.61;60.59
34081;BME280;20358;50.272;19.026;2023-12-14T01:53:14;96966.09;;;9.66;60.10
34081;BME280;20358;50.272;19.026;2023-12-14T01:56:20;96968.91;;;9.63;59.59
34081;BME280;20358;50.272;19.026;2023-12-14T01:59:26;96973.41;;;9.61;60.59
34081;BME280;20358;50.272;19.026;2023-12-14T02:02:33;96938.50;;;9.36;60.26
34081;BME280;20358;50.272;19.026;2023-12-14T02:05:40;96968.19;;;9.61;60.04
34081;BME280;20358;50.272;19.026;2023-12-14T02:08:50;96967.06;;;9.65;60.53
34081;BME280;20358;50.272;19.026;2023-12-14T02:11:55;96964.31;;;9.66;60.08
34081;BME280;20358;50.272;19.026;2023-12-14T02:15:04;96964.97;;;9.70;59.88
34081;BME280;20358;50.272;19.026;2023-12-14T02:18:11;96955.25;;;9.72;59.88
34081;BME280;20358;50.272;19.026;2023-12-14T02:21:18;96966.09;;;9.66;59.62
34081;BME280;20358;50.272;19.026;2023-12-14T02:24:26;96967.06;;;9.65;59.72
34081;BME280;20358;50.272;19.026;2023-12-14T02:27:33;96967.97;;;9.64;59.50
34081;BME280;20358;50.272;19.026;2023-12-14T02:30:39;96970.78;;;9.61;59.69
34081;BME280;20358;50.272;19.026;2023-12-14T02:33:46;96980.91;;;9.53;59.56
34081;BME280;20358;50.272;19.026;2023-12-14T02:36:52;96987.81;;;9.54;60.19
34081;BME280;20358;50.272;19.026;2023-12-14T02:40:02;96986.53;;;9.47;60.09
34081;BME280;20358;50.272;19.026;2023-12-14T02:43:09;96992.69;;;9.46;59.69
34081;BME280;20358;50.272;19.026;2023-12-14T02:46:15;96997.91;;;9.46;60.47
34081;BME280;20358;50.272;19.026;2023-12-14T02:49:22;97002.41;;;9.44;59.98
34081;BME280;20358;50.272;19.026;2023-12-14T02:52:29;96996.72;;;9.37;60.38
34081;BME280;20358;50.272;19.026;2023-12-14T02:55:37;97005.28;;;9.39;60.19
34081;BME280;20358;50.272;19.026;2023-12-14T02:58:45;97006.31;;;9.36;60.61
34081;BME280;20358;50.272;19.026;2023-12-14T03:01:53;97006.97;;;9.40;60.56
34081;BME280;20358;50.272;19.026;2023-12-14T03:05:00;97011.78;;;9.46;60.48
34081;BME280;20358;50.272;19.026;2023-12-14T03:08:08;97014.47;;;9.45;60.23
34081;BME280;20358;50.272;19.026;2023-12-14T03:11:24;97020.22;;;9.50;60.20
34081;BME280;20358;50.272;19.026;2023-12-14T03:14:32;97022.94;;;9.48;60.22
34081;BME280;20358;50.272;19.026;2023-12-14T03:17:40;97031.69;;;9.47;60.28
34081;BME280;20358;50.272;19.026;2023-12-14T03:20:46;97030.13;;;9.45;60.26
34081;BME280;20358;50.272;19.026;2023-12-14T03:23:54;97038.16;;;9.42;60.34
34081;BME280;20358;50.272;19.026;2023-12-14T03:27:02;97038.47;;;9.37;60.44
34081;BME280;20358;50.272;19.026;2023-12-14T03:30:10;97039.81;;;9.30;60.95
34081;BME280;20358;50.272;19.026;2023-12-14T03:33:16;97048.03;;;9.36;60.93
34081;BME280;20358;50.272;19.026;2023-12-14T03:36:23;97053.06;;;9.40;60.37
34081;BME280;20358;50.272;19.026;2023-12-14T03:39:30;97054.75;;;9.41;60.68
34081;BME280;20358;50.272;19.026;2023-12-14T03:42:39;97061.53;;;9.43;60.57
34081;BME280;20358;50.272;19.026;2023-12-14T03:45:45;97070.22;;;9.44;60.50
34081;BME280;20358;50.272;19.026;2023-12-14T03:48:51;97080.66;;;9.44;60.44
34081;BME280;20358;50.272;19.026;2023-12-14T03:51:57;97077.38;;;9.40;60.50
34081;BME280;20358;50.272;19.026;2023-12-14T03:55:06;97076.97;;;9.33;60.93
34081;BME280;20358;50.272;19.026;2023-12-14T03:58:15;97079.34;;;9.36;60.96
34081;BME280;20358;50.272;19.026;2023-12-14T04:01:21;97081.75;;;9.40;60.97
34081;BME280;20358;50.272;19.026;2023-12-14T04:04:28;97098.56;;;9.35;60.73
34081;BME280;20358;50.272;19.026;2023-12-14T04:07:35;97098.84;;;9.31;61.13
34081;BME280;20358;50.272;19.026;2023-12-14T04:10:43;97110.22;;;9.30;61.34
34081;BME280;20358;50.272;19.026;2023-12-14T04:13:52;97103.13;;;9.32;61.51
34081;BME280;20358;50.272;19.026;2023-12-14T04:16:58;97113.66;;;9.30;61.24
34081;BME280;20358;50.272;19.026;2023-12-14T04:20:06;97104.63;;;9.22;62.09
34081;BME280;20358;50.272;19.026;2023-12-14T04:23:13;97118.31;;;9.25;61.75
34081;BME280;20358;50.272;19.026;2023-12-14T04:26:20;97119.56;;;9.20;62.02
34081;BME280;20358;50.272;19.026;2023-12-14T04:29:28;97123.19;;;9.17;62.39
34081;BME280;20358;50.272;19.026;2023-12-14T04:32:35;97126.41;;;9.21;62.11
34081;BME280;20358;50.272;19.026;2023-12-14T04:35:41;97134.16;;;9.22;61.98
34081;BME280;20358;50.272;19.026;2023-12-14T04:38:48;97137.69;;;9.21;62.20
34081;BME280;20358;50.272;19.026;2023-12-14T04:41:54;97137.50;;;9.24;62.36
34081;BME280;20358;50.272;19.026;2023-12-14T04:45:05;97145.44;;;9.23;62.55
34081;BME280;20358;50.272;19.026;2023-12-14T04:48:12;97141.25;;;9.20;63.05
34081;BME280;20358;50.272;19.026;2023-12-14T04:51:18;97147.09;;;9.24;62.95
34081;BME280;20358;50.272;19.026;2023-12-14T04:54:24;97147.28;;;9.21;62.61
34081;BME280;20358;50.272;19.026;2023-12-14T04:57:31;97159.75;;;9.16;62.96
34081;BME280;20358;50.272;19.026;2023-12-14T05:00:39;97155.59;;;9.13;63.10
34081;BME280;20358;50.272;19.026;2023-12-14T05:03:46;97167.88;;;9.11;63.02
34081;BME280;20358;50.272;19.026;2023-12-14T05:06:53;97170.41;;;9.13;63.24
34081;BME280;20358;50.272;19.026;2023-12-14T05:10:01;97170.41;;;9.13;62.86
34081;BME280;20358;50.272;19.026;2023-12-14T05:13:08;97178.97;;;9.15;63.03
34081;BME280;20358;50.272;19.026;2023-12-14T05:16:17;97186.13;;;9.11;63.26
34081;BME280;20358;50.272;19.026;2023-12-14T05:19:23;97182.69;;;9.11;62.79
34081;BME280;20358;50.272;19.026;2023-12-14T05:22:30;97187.72;;;9.14;63.11
34081;BME280;20358;50.272;19.026;2023-12-14T05:25:37;97197.97;;;9.17;62.96
34081;BME280;20358;50.272;19.026;2023-12-14T05:28:44;97201.22;;;9.20;62.85
34081;BME280;20358;50.272;19.026;2023-12-14T05:31:53;97204.56;;;9.22;62.76
34081;BME280;20358;50.272;19.026;2023-12-14T05:35:00;97206.22;;;9.23;62.67
34081;BME280;20358;50.272;19.026;2023-12-14T05:38:06;97217.03;;;9.31;62.89
34081;BME280;20358;50.272;19.026;2023-12-14T05:41:13;97218.88;;;9.29;62.32
34081;BME280;20358;50.272;19.026;2023-12-14T05:44:19;97225.78;;;9.30;62.65
34081;BME280;20358;50.272;19.026;2023-12-14T05:47:32;97227.66;;;9.28;62.70
34081;BME280;20358;50.272;19.026;2023-12-14T05:50:38;97232.03;;;9.28;62.90
34081;BME280;20358;50.272;19.026;2023-12-14T05:53:45;97222.88;;;9.21;62.26
34081;BME280;20358;50.272;19.026;2023-12-14T05:56:50;97249.81;;;9.21;62.74
34081;BME280;20358;50.272;19.026;2023-12-14T05:59:57;97237.34;;;9.12;62.61
34081;BME280;20358;50.272;19.026;2023-12-14T06:03:08;97249.66;;;9.10;63.27
34081;BME280;20358;50.272;19.026;2023-12-14T06:06:16;97247.38;;;9.18;63.07
34081;BME280;20358;50.272;19.026;2023-12-14T06:09:23;97245.56;;;9.20;62.98
34081;BME280;20358;50.272;19.026;2023-12-14T06:12:37;97250.38;;;9.26;63.01
34081;BME280;20358;50.272;19.026;2023-12-14T06:15:43;97255.56;;;9.26;62.53
34081;BME280;20358;50.272;19.026;2023-12-14T06:18:53;97256.69;;;9.36;62.83
34081;BME280;20358;50.272;19.026;2023-12-14T06:21:59;97261.72;;;9.40;62.94
34081;BME280;20358;50.272;19.026;2023-12-14T06:25:06;97271.78;;;9.46;62.28
34081;BME280;20358;50.272;19.026;2023-12-14T06:28:13;97278.09;;;9.56;64.04
34081;BME280;20358;50.272;19.026;2023-12-14T06:31:21;97288.19;;;9.62;61.69
34081;BME280;20358;50.272;19.026;2023-12-14T06:34:30;97291.69;;;9.61;61.25
34081;BME280;20358;50.272;19.026;2023-12-14T06:37:40;97296.38;;;9.56;60.92
34081;BME280;20358;50.272;19.026;2023-12-14T06:40:47;97301.03;;;9.36;61.30
34081;BME280;20358;50.272;19.026;2023-12-14T06:43:55;97298.81;;;9.30;62.35
34081;BME280;20358;50.272;19.026;2023-12-14T06:47:02;97305.69;;;9.31;61.63
34081;BME280;20358;50.272;19.026;2023-12-14T06:50:12;97311.84;;;9.30;61.79
34081;BME280;20358;50.272;19.026;2023-12-14T06:53:19;97318.00;;;9.29;61.97
34081;BME280;20358;50.272;19.026;2023-12-14T06:56:27;97314.28;;;9.33;62.07
34081;BME280;20358;50.272;19.026;2023-12-14T06:59:33;97323.03;;;9.32;61.89
34081;BME280;20358;50.272;19.026;2023-12-14T07:02:40;97318.53;;;9.34;61.77
34081;BME280;20358;50.272;19.026;2023-12-14T07:05:48;97317.81;;;9.32;62.05
34081;BME280;20358;50.272;19.026;2023-12-14T07:08:56;97281.47;;;9.01;61.79
34081;BME280;20358;50.272;19.026;2023-12-14T07:12:03;97317.44;;;9.24;61.88
34081;BME280;20358;50.272;19.026;2023-12-14T07:15:11;97328.59;;;9.26;62.12
34081;BME280;20358;50.272;19.026;2023-12-14T07:18:17;97333.53;;;9.17;62.23
34081;BME280;20358;50.272;19.026;2023-12-14T07:21:27;97344.81;;;9.17;62.53
34081;BME280;20358;50.272;19.026;2023-12-14T07:24:33;97341.06;;;9.21;62.62
34081;BME280;20358;50.272;19.026;2023-12-14T07:27:54;97354.03;;;9.23;62.32
34081;BME280;20358;50.272;19.026;2023-12-14T07:31:00;97360.44;;;9.17;62.42
34081;BME280;20358;50.272;19.026;2023-12-14T07:34:07;97368.09;;;9.20;62.35
34081;BME280;20358;50.272;19.026;2023-12-14T07:37:16;97368.00;;;9.22;62.59
34081;BME280;20358;50.272;19.026;2023-12-14T07:40:23;97374.72;;;9.26;62.69
34081;BME280;20358;50.272;19.026;2023-12-14T07:43:29;97374.50;;;9.29;62.88
34081;BME280;20358;50.272;19.026;2023-12-14T07:46:35;97383.00;;;9.32;62.78
34081;BME280;20358;50.272;19.026;2023-12-14T07:49:44;97389.13;;;9.31;62.54
34081;BME280;20358;50.272;19.026;2023-12-14T07:52:53;97396.22;;;9.29;62.79
34081;BME280;20358;50.272;19.026;2023-12-14T07:55:59;97401.44;;;9.29;63.04
34081;BME280;20358;50.272;19.026;2023-12-14T07:59:08;97404.78;;;9.31;62.84
34081;BME280;20358;50.272;19.026;2023-12-14T08:02:14;97411.69;;;9.32;62.69
34081;BME280;20358;50.272;19.026;2023-12-14T08:05:21;97414.88;;;9.38;63.02
34081;BME280;20358;50.272;19.026;2023-12-14T08:08:30;97411.53;;;9.35;62.80
34081;BME280;20358;50.272;19.026;2023-12-14T08:11:36;97424.94;;;9.44;62.24
34081;BME280;20358;50.272;19.026;2023-12-14T08:14:43;97425.97;;;9.41;62.46
34081;BME280;20358;50.272;19.026;2023-12-14T08:17:50;97436.47;;;9.40;62.73
34081;BME280;20358;50.272;19.026;2023-12-14T08:20:56;97435.75;;;9.38;62.72
34081;BME280;20358;50.272;19.026;2023-12-14T08:24:06;97440.94;;;9.38;62.75
34081;BME280;20358;50.272;19.026;2023-12-14T08:27:12;97444.97;;;9.43;63.06
34081;BME280;20358;50.272;19.026;2023-12-14T08:30:19;97445.66;;;9.47;62.48
34081;BME280;20358;50.272;19.026;2023-12-14T08:33:26;97450.66;;;9.50;62.47
34081;BME280;20358;50.272;19.026;2023-12-14T08:36:33;97455.69;;;9.53;62.58
34081;BME280;20358;50.272;19.026;2023-12-14T08:39:41;97455.69;;;9.53;62.60
34081;BME280;20358;50.272;19.026;2023-12-14T08:42:48;97460.75;;;9.56;62.42
34081;BME280;20358;50.272;19.026;2023-12-14T08:45:54;97470.31;;;9.55;62.49
34081;BME280;20358;50.272;19.026;2023-12-14T08:49:02;97476.22;;;9.59;62.51
34081;BME280;20358;50.272;19.026;2023-12-14T08:52:08;97480.31;;;9.63;62.53
34081;BME280;20358;50.272;19.026;2023-12-14T08:55:17;97466.63;;;9.59;62.19
34081;BME280;20358;50.272;19.026;2023-12-14T08:58:24;97493.94;;;9.68;61.77
34081;BME280;20358;50.272;19.026;2023-12-14T09:01:31;97493.94;;;9.68;61.52
34081;BME280;20358;50.272;19.026;2023-12-14T09:04:37;97496.53;;;9.68;61.45
34081;BME280;20358;50.272;19.026;2023-12-14T09:07:44;97501.56;;;9.71;61.73
34081;BME280;20358;50.272;19.026;2023-12-14T09:10:52;97513.88;;;9.69;61.17
34081;BME280;20358;50.272;19.026;2023-12-14T09:13:59;97518.94;;;9.72;61.19
34081;BME280;20358;50.272;19.026;2023-12-14T09:17:07;97517.22;;;9.71;61.22
34081;BME280;20358;50.272;19.026;2023-12-14T09:20:14;97527.66;;;9.71;61.10
34081;BME280;20358;50.272;19.026;2023-12-14T09:23:20;97525.81;;;9.73;61.13
34081;BME280;20358;50.272;19.026;2023-12-14T09:26:30;97526.81;;;9.70;61.21
34081;BME280;20358;50.272;19.026;2023-12-14T09:29:36;97527.78;;;9.69;61.47
34081;BME280;20358;50.272;19.026;2023-12-14T09:32:43;97533.56;;;9.74;61.23
34081;BME280;20358;50.272;19.026;2023-12-14T09:35:49;97532.53;;;9.77;60.98
34081;BME280;20358;50.272;19.026;2023-12-14T09:38:56;97529.19;;;9.75;61.23
34081;BME280;20358;50.272;19.026;2023-12-14T09:42:06;97532.53;;;9.77;60.92
34081;BME280;20358;50.272;19.026;2023-12-14T09:45:13;97538.13;;;9.71;60.71
34081;BME280;20358;50.272;19.026;2023-12-14T09:48:24;97536.25;;;9.73;60.81
34081;BME280;20358;50.272;19.026;2023-12-14T09:51:31;97546.63;;;9.74;60.99
34081;BME280;20358;50.272;19.026;2023-12-14T09:54:38;97534.75;;;9.69;60.71
34081;BME280;20358;50.272;19.026;2023-12-14T09:57:48;97538.69;;;9.76;60.93
34081;BME280;20358;50.272;19.026;2023-12-14T10:00:55;97556.59;;;9.82;60.56
34081;BME280;20358;50.272;19.026;2023-12-14T10:04:09;97554.91;;;9.81;60.33
34081;BME280;20358;50.272;19.026;2023-12-14T10:07:17;97558.47;;;9.80;60.27
34081;BME280;20358;50.272;19.026;2023-12-14T10:10:29;97558.47;;;9.80;60.34
34081;BME280;20358;50.272;19.026;2023-12-14T10:13:40;97556.78;;;9.79;60.36
34081;BME280;20358;50.272;19.026;2023-12-14T10:16:48;97523.34;;;9.56;60.65
34081;BME280;20358;50.272;19.026;2023-12-14T10:20:05;97562.91;;;9.78;60.94
34081;BME280;20358;50.272;19.026;2023-12-14T10:23:13;97566.38;;;9.78;60.74
34081;BME280;20358;50.272;19.026;2023-12-14T10:26:22;97569.09;;;9.77;60.93
34081;BME280;20358;50.272;19.026;2023-12-14T10:29:32;97571.59;;;9.78;60.72
34081;BME280;20358;50.272;19.026;2023-12-14T10:32:39;97560.50;;;9.75;60.57
34081;BME280;20358;50.272;19.026;2023-12-14T10:35:45;97558.81;;;9.74;60.67
34081;BME280;20358;50.272;19.026;2023-12-14T10:38:53;97574.13;;;9.80;61.23
34081;BME280;20358;50.272;19.026;2023-12-14T10:42:06;97578.22;;;9.84;60.96
34081;BME280;20358;50.272;19.026;2023-12-14T10:45:28;97581.19;;;9.78;60.79
34081;BME280;20358;50.272;19.026;2023-12-14T10:48:39;97588.03;;;9.80;60.83
34081;BME280;20358;50.272;19.026;2023-12-14T10:51:47;97585.31;;;9.82;60.82
34081;BME280;20358;50.272;19.026;2023-12-14T10:55:00;97588.41;;;9.88;60.74
34081;BME280;20358;50.272;19.026;2023-12-14T10:58:11;97591.78;;;9.90;60.47
34081;BME280;20358;50.272;19.026;2023-12-14T11:01:23;97581.50;;;9.87;60.69
34081;BME280;20358;50.272;19.026;2023-12-14T11:04:30;97596.06;;;9.91;60.63
34081;BME280;20358;50.272;19.026;2023-12-14T11:07:47;97599.34;;;9.95;60.60
34081;BME280;20358;50.272;19.026;2023-12-14T11:11:04;97606.59;;;9.90;60.82
34081;BME280;20358;50.272;19.026;2023-12-14T11:14:15;97604.72;;;9.92;60.73
34081;BME280;20358;50.272;19.026;2023-12-14T11:17:25;97608.94;;;9.94;60.95
34081;BME280;20358;50.272;19.026;2023-12-14T11:20:47;97621.88;;;9.96;60.94
34081;BME280;20358;50.272;19.026;2023-12-14T11:23:54;97629.81;;;9.94;60.50
34081;BME280;20358;50.272;19.026;2023-12-14T11:27:04;97623.75;;;9.94;60.88
34081;BME280;20358;50.272;19.026;2023-12-14T11:30:12;97627.09;;;9.96;60.96
34081;BME280;20358;50.272;19.026;2023-12-14T11:33:23;97634.19;;;9.94;60.66
34081;BME280;20358;50.272;19.026;2023-12-14T11:36:31;97626.63;;;9.89;60.89
34081;BME280;20358;50.272;19.026;2023-12-14T11:39:38;97631.75;;;9.91;60.80
34081;BME280;20358;50.272;19.026;2023-12-14T11:42:46;97630.16;;;9.88;60.98
34081;BME280;20358;50.272;19.026;2023-12-14T11:46:03;97629.41;;;9.86;60.99
34081;BME280;20358;50.272;19.026;2023-12-14T11:49:12;97636.41;;;9.86;61.09
34081;BME280;20358;50.272;19.026;2023-12-14T11:52:19;97644.22;;;9.86;61.05
34081;BME280;20358;50.272;19.026;2023-12-14T11:55:25;97643.66;;;9.81;60.98
34081;BME280;20358;50.272;19.026;2023-12-14T11:58:32;97639.13;;;9.84;61.41
34081;BME280;20358;50.272;19.026;2023-12-14T12:01:39;97650.56;;;9.82;61.06
34081;BME280;20358;50.272;19.026;2023-12-14T12:04:52;97637.28;;;9.71;61.04
34081;BME280;20358;50.272;19.026;2023-12-14T12:07:58;97651.50;;;9.81;61.21
34081;BME280;20358;50.272;19.026;2023-12-14T12:11:05;97648.44;;;9.88;61.20
34081;BME280;20358;50.272;19.026;2023-12-14T12:14:12;97654.50;;;9.89;61.01
34081;BME280;20358;50.272;19.026;2023-12-14T12:17:19;97669.09;;;9.93;60.80
34081;BME280;20358;50.272;19.026;2023-12-14T12:20:28;97666.06;;;9.85;61.10
34081;BME280;20358;50.272;19.026;2023-12-14T12:23:36;97655.97;;;9.79;60.87
34081;BME280;20358;50.272;19.026;2023-12-14T12:26:44;97674.31;;;9.93;61.07
34081;BME280;20358;50.272;19.026;2023-12-14T12:29:51;97677.84;;;9.92;60.73
34081;BME280;20358;50.272;19.026;2023-12-14T12:32:57;97676.13;;;9.91;60.59
34081;BME280;20358;50.272;19.026;2023-12-14T12:36:08;97676.34;;;9.88;60.60
34081;BME280;20358;50.272;19.026;2023-12-14T12:39:15;97677.50;;;9.98;60.78
34081;BME280;20358;50.272;19.026;2023-12-14T12:42:21;97678.97;;;10.02;60.89
34081;BME280;20358;50.272;19.026;2023-12-14T12:45:28;97680.41;;;10.08;60.28
34081;BME280;20358;50.272;19.026;2023-12-14T12:48:36;97690.00;;;10.07;60.26
34081;BME280;20358;50.272;19.026;2023-12-14T12:51:45;97702.66;;;9.99;60.74
34081;BME280;20358;50.272;19.026;2023-12-14T12:54:52;97706.66;;;9.90;60.79
34081;BME280;20358;50.272;19.026;2023-12-14T12:57:57;97708.69;;;9.85;60.83
34081;BME280;20358;50.272;19.026;2023-12-14T13:01:08;97721.16;;;9.80;60.85
34081;BME280;20358;50.272;19.026;2023-12-14T13:04:18;97724.75;;;9.78;60.45
34081;BME280;20358;50.272;19.026;2023-12-14T13:07:28;97721.97;;;9.81;60.34
34081;BME280;20358;50.272;19.026;2023-12-14T13:10:35;97727.19;;;9.81;60.47
34081;BME280;20358;50.272;19.026;2023-12-14T13:13:42;97732.25;;;9.84;60.74
34081;BME280;20358;50.272;19.026;2023-12-14T13:16:48;97738.00;;;9.75;60.55
34081;BME280;20358;50.272;19.026;2023-12-14T13:19:55;97737.03;;;9.76;60.88
34081;BME280;20358;50.272;19.026;2023-12-14T13:23:05;97743.53;;;9.69;60.82
34081;BME280;20358;50.272;19.026;2023-12-14T13:26:12;97749.59;;;9.69;60.77
34081;BME280;20358;50.272;19.026;2023-12-14T13:29:18;97755.00;;;9.66;60.61
34081;BME280;20358;50.272;19.026;2023-12-14T13:32:25;97764.41;;;9.69;61.01
34081;BME280;20358;50.272;19.026;2023-12-14T13:35:31;97767.94;;;9.68;60.88
34081;BME280;20358;50.272;19.026;2023-12-14T13:38:41;97771.34;;;9.70;61.07
34081;BME280;20358;50.272;19.026;2023-12-14T13:41:49;97787.16;;;9.67;61.30
34081;BME280;20358;50.272;19.026;2023-12-14T13:44:58;97789.03;;;9.65;61.46
34081;BME280;20358;50.272;19.026;2023-12-14T13:48:09;97795.56;;;9.56;61.95
34081;BME280;20358;50.272;19.026;2023-12-14T13:51:16;97799.78;;;9.59;61.86
34081;BME280;20358;50.272;19.026;2023-12-14T13:54:25;97810.88;;;9.47;62.21
34081;BME280;20358;50.272;19.026;2023-12-14T13:57:32;97813.81;;;9.41;62.50
34081;BME280;20358;50.272;19.026;2023-12-14T14:00:39;97818.06;;;9.42;62.87
34081;BME280;20358;50.272;19.026;2023-12-14T14:03:45;97813.72;;;9.42;62.83
34081;BME280;20358;50.272;19.026;2023-12-14T14:06:52;97823.47;;;9.39;62.51
34081;BME280;20358;50.272;19.026;2023-12-14T14:10:03;97829.78;;;9.34;62.88
34081;BME280;20358;50.272;19.026;2023-12-14T14:13:12;97841.91;;;9.35;63.01
34081;BME280;20358;50.272;19.026;2023-12-14T14:16:24;97840.97;;;9.36;62.90
34081;BME280;20358;50.272;19.026;2023-12-14T14:19:30;97841.16;;;9.33;63.04
34081;BME280;20358;50.272;19.026;2023-12-14T14:22:37;97850.03;;;9.29;63.22
34081;BME280;20358;50.272;19.026;2023-12-14T14:25:45;97843.97;;;9.29;63.44
34081;BME280;20358;50.272;19.026;2023-12-14T14:28:57;97845.41;;;9.34;63.78
34081;BME280;20358;50.272;19.026;2023-12-14T14:32:05;97856.59;;;9.36;63.45
34081;BME280;20358;50.272;19.026;2023-12-14T14:35:12;97851.25;;;9.40;63.64
34081;BME280;20358;50.272;19.026;2023-12-14T14:38:19;97862.28;;;9.45;63.54
34081;BME280;20358;50.272;19.026;2023-12-14T14:41:28;97867.09;;;9.52;63.53
34081;BME280;20358;50.272;19.026;2023-12-14T14:44:34;97871.00;;;9.61;63.60
34081;BME280;20358;50.272;19.026;2023-12-14T14:47:41;97877.91;;;9.62;63.14
34081;BME280;20358;50.272;19.026;2023-12-14T14:50:47;97882.97;;;9.65;62.65
34081;BME280;20358;50.272;19.026;2023-12-14T14:53:57;97891.63;;;9.65;62.40
34081;BME280;20358;50.272;19.026;2023-12-14T14:57:08;97879.56;;;9.63;62.39
34081;BME280;20358;50.272;19.026;2023-12-14T15:00:15;97888.00;;;9.68;62.73
34081;BME280;20358;50.272;19.026;2023-12-14T15:03:22;97899.81;;;9.75;62.53
34081;BME280;20358;50.272;19.026;2023-12-14T15:06:29;97902.44;;;9.75;62.02
34081;BME280;20358;50.272;19.026;2023-12-14T15:09:39;97905.19;;;9.72;61.84
34081;BME280;20358;50.272;19.026;2023-12-14T15:12:49;97903.50;;;9.71;61.79
34081;BME280;20358;50.272;19.026;2023-12-14T15:15:54;97908.56;;;9.74;61.56
34081;BME280;20358;50.272;19.026;2023-12-14T15:19:07;97906.88;;;9.73;61.83
34081;BME280;20358;50.272;19.026;2023-12-14T15:22:13;97908.56;;;9.74;61.73
34081;BME280;20358;50.272;19.026;2023-12-14T15:25:22;97915.50;;;9.75;61.47
34081;BME280;20358;50.272;19.026;2023-12-14T15:28:31;97922.38;;;9.76;61.41
34081;BME280;20358;50.272;19.026;2023-12-14T15:31:38;97933.66;;;9.76;61.33
34081;BME280;20358;50.272;19.026;2023-12-14T15:34:44;97935.75;;;9.70;61.61
34081;BME280;20358;50.272;19.026;2023-12-14T15:37:53;97948.63;;;9.73;61.66
34081;BME280;20358;50.272;19.026;2023-12-14T15:40:58;97952.34;;;9.69;61.29
34081;BME280;20358;50.272;19.026;2023-12-14T15:44:08;97955.84;;;9.68;61.55
34081;BME280;20358;50.272;19.026;2023-12-14T15:47:14;97957.72;;;9.66;61.34
34081;BME280;20358;50.272;19.026;2023-12-14T15:50:22;97962.94;;;9.66;61.32
34081;BME280;20358;50.272;19.026;2023-12-14T15:53:28;97963.88;;;9.65;61.50
34081;BME280;20358;50.272;19.026;2023-12-14T15:56:35;97956.03;;;9.65;61.58
34081;BME280;20358;50.272;19.026;2023-12-14T15:59:44;97965.63;;;9.64;61.37
34081;BME280;20358;50.272;19.026;2023-12-14T16:02:51;97969.69;;;9.70;61.71
34081;BME280;20358;50.272;19.026;2023-12-14T16:05:57;97964.22;;;9.74;61.49
34081;BME280;20358;50.272;19.026;2023-12-14T16:09:05;97985.50;;;9.67;61.33
34081;BME280;20358;50.272;19.026;2023-12-14T16:12:11;97983.97;;;9.63;61.30
34081;BME280;20358;50.272;19.026;2023-12-14T16:15:21;97993.03;;;9.56;61.38
34081;BME280;20358;50.272;19.026;2023-12-14T16:18:27;97999.09;;;9.56;61.55
34081;BME280;20358;50.272;19.026;2023-12-14T16:21:34;97995.03;;;9.51;61.68
34081;BME280;20358;50.272;19.026;2023-12-14T16:24:40;98009.84;;;9.50;61.79
34081;BME280;20358;50.272;19.026;2023-12-14T16:27:47;98008.84;;;9.53;61.82
34081;BME280;20358;50.272;19.026;2023-12-14T16:30:57;98016.00;;;9.49;61.90
34081;BME280;20358;50.272;19.026;2023-12-14T16:34:09;98018.50;;;9.51;61.87